SKSM/SMR METAR and TAF weather

Enter ICAO airport designator
Station Type Date Time Source
SKSM METAR 2024/07/23 17:00 UTC NOAA

SKSM 231700Z 31008KT 9999 FEW020 33/26 Q1012


Station Type Date Time Source
SKSM Decoded METAR 2024/07/23 17:00 UTC NOAA

Santa Marta / Simon Bolivar, Colombia (SKSM) 11-08N 074-14W 14M
Jul 23, 2024 - 01:00 PM EDT / 2024.07.23 1700 UTC
Wind: from the NW (310 degrees) at 9 MPH (8 KT):0
Visibility: greater than 7 mile(s):0
Sky conditions: mostly clear
Temperature: 91 F (33 C)
Heat index: 106.2 F (41.2 C):1
Dew Point: 78 F (26 C)
Relative Humidity: 66%
Pressure (altimeter): 29.88 in. Hg (1012 hPa)
ob: SKSM 231700Z 31008KT 9999 FEW020 33/26 Q1012
cycle: 17

Station Type Date Time Source
SKSM TAF 2024/07/23 18:57 UTC NOAA